createdAt,value
2022-08-18T00:01:16.527Z,88.40
2022-08-18T00:03:55.836Z,84.55
2022-08-18T00:06:29.377Z,80.70
2022-08-18T00:08:59.337Z,80.10
2022-08-18T00:11:41.324Z,84.13
2022-08-18T00:14:22.652Z,85.43
2022-08-18T00:16:53.691Z,92.85
2022-08-18T00:19:46.963Z,83.72
2022-08-18T00:22:14.775Z,92.95
2022-08-18T00:24:49.250Z,97.00
2022-08-18T00:27:22.013Z,90.60
2022-08-18T00:29:52.778Z,88.37
2022-08-18T00:32:26.662Z,90.75
2022-08-18T00:34:54.313Z,88.87
2022-08-18T00:37:23.049Z,87.93
2022-08-18T00:39:52.740Z,84.47
2022-08-18T00:42:30.587Z,84.00
2022-08-18T00:45:01.722Z,82.07
2022-08-18T00:47:41.715Z,84.40
2022-08-18T00:50:49.150Z,83.30
2022-08-18T00:53:36.223Z,79.35
2022-08-18T00:56:11.997Z,80.53
2022-08-18T00:58:46.836Z,86.30
2022-08-18T01:03:47.267Z,80.25
2022-08-18T01:06:32.341Z,86.32
2022-08-18T01:08:59.806Z,89.15
2022-08-18T01:11:27.308Z,87.78
2022-08-18T01:13:54.690Z,91.07
2022-08-18T01:16:57.173Z,97.00
2022-08-18T01:19:44.198Z,89.72
2022-08-18T01:22:50.099Z,96.07
2022-08-18T01:28:06.101Z,92.78
2022-08-18T01:30:50.001Z,100.80
2022-08-18T01:33:19.094Z,102.70
2022-08-18T01:35:49.395Z,106.22
2022-08-18T01:38:19.071Z,106.78
2022-08-18T01:41:24.227Z,106.20
2022-08-18T01:43:36.018Z,121.57
2022-08-18T01:46:04.943Z,122.50
2022-08-18T01:48:36.772Z,115.38
2022-08-18T01:51:09.351Z,116.25
2022-08-18T01:53:37.942Z,127.28
2022-08-18T01:56:06.415Z,133.02
2022-08-18T01:58:35.107Z,131.15
2022-08-18T02:01:03.690Z,119.30
2022-08-18T02:03:40.787Z,117.13
2022-08-18T02:06:14.672Z,122.10
2022-08-18T02:08:43.707Z,126.47
2022-08-18T02:11:14.583Z,117.80
2022-08-18T02:13:42.348Z,103.63
2022-08-18T02:16:09.759Z,117.22
2022-08-18T02:18:47.851Z,110.07
2022-08-18T02:21:19.099Z,101.13
2022-08-18T02:23:52.926Z,97.97
2022-08-18T02:26:23.283Z,93.68
2022-08-18T02:28:51.720Z,93.85
2022-08-18T02:31:21.618Z,93.07
2022-08-18T02:33:52.517Z,86.22
2022-08-18T02:36:25.083Z,84.40
2022-08-18T02:38:58.748Z,86.95
2022-08-18T02:41:29.875Z,93.18
2022-08-18T02:43:58.421Z,81.40
2022-08-18T02:46:30.182Z,85.63
2022-08-18T02:49:00.461Z,80.32
2022-08-18T02:51:28.250Z,78.50
2022-08-18T02:53:59.335Z,80.18
2022-08-18T02:56:40.303Z,82.38
2022-08-18T02:59:15.558Z,88.65
2022-08-18T03:01:46.541Z,88.18
2022-08-18T03:04:21.114Z,89.63
2022-08-18T03:06:50.301Z,85.65
2022-08-18T03:09:20.138Z,79.80
2022-08-18T03:11:47.618Z,94.22
2022-08-18T03:14:15.881Z,90.78
2022-08-18T03:16:53.578Z,90.45
2022-08-18T03:19:29.562Z,87.03
2022-08-18T03:22:02.782Z,87.57
2022-08-18T03:24:33.686Z,99.93
2022-08-18T03:27:04.247Z,85.13
2022-08-18T03:29:32.919Z,88.78
2022-08-18T03:32:02.782Z,90.90
2022-08-18T03:34:30.600Z,82.30
2022-08-18T03:36:58.522Z,94.32
2022-08-18T03:39:27.806Z,88.47
2022-08-18T03:41:58.536Z,88.03
2022-08-18T03:44:31.198Z,86.45
2022-08-18T03:47:00.153Z,82.40
2022-08-18T03:49:27.894Z,86.07
2022-08-18T03:51:55.412Z,87.80
2022-08-18T03:54:23.320Z,88.53
2022-08-18T03:56:50.717Z,84.57
2022-08-18T03:59:24.238Z,83.65
2022-08-18T04:01:54.081Z,81.93
2022-08-18T04:04:24.746Z,83.03
2022-08-18T04:06:59.043Z,79.57
2022-08-18T04:09:29.025Z,81.55
2022-08-18T04:11:58.054Z,79.53
2022-08-18T04:14:31.266Z,78.25
2022-08-18T04:16:59.202Z,78.57
2022-08-18T04:19:27.941Z,71.10
2022-08-18T04:21:57.759Z,72.88
2022-08-18T04:24:28.169Z,74.75
2022-08-18T04:27:00.943Z,74.57
2022-08-18T04:29:28.995Z,74.20
2022-08-18T04:31:56.916Z,70.47
2022-08-18T04:34:24.291Z,68.97
2022-08-18T04:36:53.929Z,76.63
2022-08-18T04:39:22.955Z,70.75
2022-08-18T04:41:50.989Z,72.82
2022-08-18T04:44:19.686Z,72.22
2022-08-18T04:46:50.039Z,72.80
2022-08-18T04:49:19.146Z,67.43
2022-08-18T04:52:34.112Z,73.20
2022-08-18T04:54:55.494Z,66.53
2022-08-18T04:57:23.147Z,72.28
2022-08-18T04:59:52.206Z,68.38
2022-08-18T05:02:21.342Z,72.30
2022-08-18T05:04:48.851Z,68.70
2022-08-18T05:07:22.501Z,69.05
2022-08-18T05:09:50.837Z,74.65
2022-08-18T05:12:18.294Z,65.75
2022-08-18T05:14:48.138Z,63.80
2022-08-18T05:17:16.397Z,64.47
2022-08-18T05:19:44.654Z,65.95
2022-08-18T05:22:19.455Z,61.08
2022-08-18T05:24:53.919Z,62.40
2022-08-18T05:27:21.557Z,65.20
2022-08-18T05:29:51.595Z,61.95
2022-08-18T05:32:41.083Z,64.45
2022-08-18T05:35:14.142Z,61.55
2022-08-18T05:40:24.946Z,60.42
2022-08-18T05:42:54.507Z,58.70
2022-08-18T05:45:22.103Z,63.08
2022-08-18T05:47:50.017Z,60.75
2022-08-18T05:50:20.362Z,55.42
2022-08-18T05:53:03.441Z,60.70
2022-08-18T05:58:37.862Z,56.03
2022-08-18T06:01:13.708Z,54.78
2022-08-18T06:03:49.965Z,54.90
2022-08-18T06:06:25.202Z,57.30
2022-08-18T06:09:24.031Z,52.10
2022-08-18T06:11:53.799Z,52.90
2022-08-18T06:14:21.249Z,53.30
2022-08-18T06:17:17.026Z,51.97
2022-08-18T06:20:12.078Z,50.75
2022-08-18T06:22:52.144Z,50.47
2022-08-18T06:25:27.403Z,48.95
2022-08-18T06:28:03.831Z,49.63
2022-08-18T06:30:40.233Z,45.53
2022-08-18T06:33:13.141Z,45.10
2022-08-18T06:35:54.467Z,41.20
2022-08-18T06:38:45.974Z,36.55
2022-08-18T06:41:41.858Z,33.42
2022-08-18T06:44:11.508Z,37.83
2022-08-18T06:46:57.038Z,36.47
2022-08-18T06:49:37.412Z,35.05
2022-08-18T06:52:25.074Z,31.67
2022-08-18T06:54:54.338Z,31.65
2022-08-18T06:57:26.544Z,28.98
2022-08-18T07:00:08.163Z,30.23
2022-08-18T07:02:55.815Z,25.17
2022-08-18T07:05:28.092Z,20.17
2022-08-18T07:08:18.597Z,20.45
2022-08-18T07:10:51.773Z,17.20
2022-08-18T07:13:25.543Z,17.98
2022-08-18T07:15:55.643Z,16.23
2022-08-18T07:18:28.617Z,13.73
2022-08-18T07:21:01.419Z,12.52
2022-08-18T07:23:38.673Z,12.80
2022-08-18T07:26:10.723Z,11.52
2022-08-18T07:28:38.060Z,11.50
2022-08-18T07:31:26.960Z,11.52
2022-08-18T07:34:15.391Z,9.95
2022-08-18T07:36:53.218Z,11.38
2022-08-18T07:39:25.966Z,10.07
2022-08-18T07:42:37.375Z,11.43
2022-08-18T07:45:18.079Z,11.32
2022-08-18T07:48:36.983Z,11.10
2022-08-18T07:51:23.682Z,12.13
2022-08-18T07:54:20.002Z,11.35
2022-08-18T07:57:23.917Z,12.10
2022-08-18T08:00:01.914Z,8.75
2022-08-18T08:03:26.455Z,11.00
2022-08-18T08:05:57.515Z,11.77
2022-08-18T08:08:42.120Z,9.73
2022-08-18T08:11:26.582Z,10.48
2022-08-18T08:14:12.684Z,11.57
2022-08-18T08:16:56.603Z,10.75
2022-08-18T08:19:59.954Z,9.95
2022-08-18T08:22:30.974Z,9.82
2022-08-18T08:25:13.661Z,11.50
2022-08-18T08:28:07.629Z,7.25
2022-08-18T08:33:26.871Z,11.65
2022-08-18T08:36:06.421Z,10.15
2022-08-18T08:39:15.824Z,11.75
2022-08-18T08:41:51.038Z,11.10
2022-08-18T08:44:48.930Z,10.57
2022-08-18T08:50:15.720Z,9.95
2022-08-18T08:53:08.798Z,10.95
2022-08-18T08:55:41.701Z,9.48
2022-08-18T08:58:11.979Z,10.73
2022-08-18T09:00:40.966Z,7.88
2022-08-18T09:03:34.504Z,8.73
2022-08-18T09:06:17.091Z,9.90
2022-08-18T09:09:21.571Z,8.48
2022-08-18T09:12:04.710Z,9.07
2022-08-18T09:14:37.966Z,7.75
2022-08-18T09:17:34.639Z,10.00
2022-08-18T09:20:16.611Z,8.75
2022-08-18T09:23:07.020Z,9.27
2022-08-18T09:25:41.942Z,8.82
2022-08-18T09:28:14.236Z,9.43
2022-08-18T09:30:47.518Z,11.10
2022-08-18T09:33:40.366Z,8.57
2022-08-18T09:36:45.969Z,7.88
2022-08-18T09:39:54.415Z,9.77
2022-08-18T09:42:56.015Z,9.45
2022-08-18T09:48:36.038Z,8.70
2022-08-18T09:50:38.313Z,8.30
2022-08-18T09:51:15.729Z,8.48
2022-08-18T09:53:53.644Z,8.77
2022-08-18T09:56:53.588Z,11.50
2022-08-18T09:59:37.863Z,10.40
2022-08-18T10:02:20.311Z,9.30
2022-08-18T10:05:17.390Z,10.52
2022-08-18T10:08:07.982Z,10.15
2022-08-18T10:11:14.296Z,8.85
2022-08-18T10:14:26.258Z,8.05
2022-08-18T10:17:24.314Z,7.32
2022-08-18T10:20:33.997Z,7.38
2022-08-18T10:23:02.052Z,8.68
2022-08-18T10:25:39.429Z,8.05
2022-08-18T10:28:48.430Z,7.93
2022-08-18T10:31:19.294Z,8.73
2022-08-18T10:34:00.220Z,7.28
2022-08-18T10:36:52.303Z,6.43
2022-08-18T10:39:42.291Z,7.55
2022-08-18T10:42:30.883Z,8.75
2022-08-18T10:45:22.099Z,7.60
2022-08-18T10:48:17.098Z,7.63
2022-08-18T10:50:56.148Z,7.45
2022-08-18T10:53:38.835Z,8.68
2022-08-18T10:56:30.890Z,7.55
2022-08-18T10:59:16.527Z,7.53
2022-08-18T11:02:14.994Z,6.50
2022-08-18T11:04:59.071Z,7.47
2022-08-18T11:07:34.333Z,7.40
2022-08-18T11:10:32.748Z,7.72
2022-08-18T11:13:13.434Z,7.93
2022-08-18T11:16:13.384Z,6.95
2022-08-18T11:18:49.131Z,8.57
2022-08-18T11:21:43.477Z,7.15
2022-08-18T11:24:35.285Z,8.45
2022-08-18T11:27:09.663Z,7.88
2022-08-18T11:29:43.809Z,8.23
2022-08-18T11:32:34.609Z,9.68
2022-08-18T11:35:07.626Z,8.65
2022-08-18T11:37:53.677Z,10.35
2022-08-18T11:43:38.955Z,9.93
2022-08-18T11:46:29.511Z,8.75
2022-08-18T11:49:00.928Z,9.73
2022-08-18T11:51:32.311Z,10.55
2022-08-18T11:54:21.843Z,9.65
2022-08-18T11:56:50.955Z,8.68
2022-08-18T11:59:52.610Z,9.35
2022-08-18T12:02:20.943Z,9.07
2022-08-18T12:04:57.852Z,7.40
2022-08-18T12:07:35.844Z,8.25
2022-08-18T12:10:26.392Z,7.55
2022-08-18T12:12:59.876Z,7.75
2022-08-18T12:15:29.469Z,8.52
2022-08-18T12:18:10.709Z,9.77
2022-08-18T12:20:48.823Z,7.43
2022-08-18T12:23:18.740Z,11.43
2022-08-18T12:25:46.027Z,7.70
2022-08-18T12:28:13.522Z,8.10
2022-08-18T12:30:42.201Z,6.88
2022-08-18T12:33:12.390Z,6.53
2022-08-18T12:35:42.036Z,6.65
2022-08-18T12:38:13.564Z,6.20
2022-08-18T12:40:42.321Z,5.18
2022-08-18T12:43:09.781Z,5.32
2022-08-18T12:48:28.095Z,4.68
2022-08-18T12:50:58.468Z,4.85
2022-08-18T12:53:29.163Z,4.80
2022-08-18T12:56:23.423Z,5.13
2022-08-18T12:58:52.875Z,4.97
2022-08-18T13:01:20.876Z,4.60
2022-08-18T13:04:11.012Z,4.93
2022-08-18T13:07:00.007Z,3.75
2022-08-18T13:09:34.779Z,4.45
2022-08-18T13:12:16.495Z,4.45
2022-08-18T13:14:45.257Z,5.45
2022-08-18T13:17:32.242Z,4.25
2022-08-18T13:20:05.543Z,5.10
2022-08-18T13:22:33.478Z,5.57
2022-08-18T13:25:03.942Z,6.25
2022-08-18T13:27:35.308Z,5.30
2022-08-18T13:30:29.391Z,4.78
2022-08-18T13:32:59.241Z,4.53
2022-08-18T13:35:30.147Z,4.85
2022-08-18T13:38:14.595Z,9.00
2022-08-18T13:40:47.161Z,4.45
2022-08-18T13:43:17.557Z,4.78
2022-08-18T13:45:48.137Z,4.28
2022-08-18T13:48:21.512Z,5.22
2022-08-18T13:50:52.329Z,4.97
2022-08-18T13:53:21.792Z,7.57
2022-08-18T13:55:49.658Z,4.45
2022-08-18T13:58:20.911Z,4.47
2022-08-18T14:00:54.331Z,4.63
2022-08-18T14:03:30.970Z,4.25
2022-08-18T14:06:12.987Z,4.57
2022-08-18T14:08:40.893Z,4.93
2022-08-18T14:11:09.019Z,6.25
2022-08-18T14:13:38.275Z,6.65
2022-08-18T14:16:18.449Z,5.22
2022-08-18T14:19:09.814Z,5.18
2022-08-18T14:22:11.369Z,5.07
2022-08-18T14:24:58.934Z,7.10
2022-08-18T14:27:34.917Z,5.07
2022-08-18T14:30:07.642Z,4.47
2022-08-18T14:32:36.653Z,6.90
2022-08-18T14:35:32.992Z,4.82
2022-08-18T14:38:03.934Z,5.60
2022-08-18T14:40:33.429Z,5.85
2022-08-18T14:43:06.669Z,5.20
2022-08-18T14:45:35.812Z,9.50
2022-08-18T14:48:07.467Z,5.50
2022-08-18T14:50:40.174Z,6.30
2022-08-18T14:53:20.073Z,5.35
2022-08-18T14:55:52.046Z,6.40
2022-08-18T14:58:20.757Z,4.88
2022-08-18T15:00:53.629Z,5.90
2022-08-18T15:03:30.982Z,5.53
2022-08-18T15:06:04.429Z,7.00
2022-08-18T15:08:35.223Z,9.60
2022-08-18T15:11:11.661Z,4.97
2022-08-18T15:13:45.351Z,5.35
2022-08-18T15:18:46.263Z,8.07
2022-08-18T15:21:35.649Z,5.32
2022-08-18T15:24:25.909Z,5.05
2022-08-18T15:26:58.316Z,5.28
2022-08-18T15:29:34.071Z,5.50
2022-08-18T15:32:06.119Z,5.68
2022-08-18T15:34:46.848Z,5.82
2022-08-18T15:37:19.540Z,5.63
2022-08-18T15:39:51.847Z,5.75
2022-08-18T15:42:23.873Z,6.43
2022-08-18T15:44:53.647Z,7.68
2022-08-18T15:47:24.947Z,6.35
2022-08-18T15:49:54.865Z,12.05
2022-08-18T15:52:26.022Z,5.88
2022-08-18T15:54:58.417Z,6.57
2022-08-18T15:57:39.826Z,6.18
2022-08-18T16:00:12.152Z,6.35
2022-08-18T16:02:48.348Z,6.25
2022-08-18T16:05:17.071Z,6.32
2022-08-18T16:07:46.019Z,6.18
2022-08-18T16:10:16.133Z,6.03
2022-08-18T16:12:45.895Z,7.50
2022-08-18T16:15:20.392Z,5.60
2022-08-18T16:17:54.473Z,5.32
2022-08-18T16:20:24.046Z,6.43
2022-08-18T16:22:53.406Z,6.10
2022-08-18T16:25:21.081Z,5.65
2022-08-18T16:27:49.398Z,6.72
2022-08-18T16:30:23.514Z,6.03
2022-08-18T16:32:51.544Z,5.65
2022-08-18T16:35:20.202Z,5.82
2022-08-18T16:37:49.654Z,7.72
2022-08-18T16:40:19.165Z,6.70
2022-08-18T16:42:47.453Z,6.22
2022-08-18T16:45:21.599Z,5.40
2022-08-18T16:47:49.272Z,8.07
2022-08-18T16:50:18.181Z,5.68
2022-08-18T16:52:45.641Z,5.75
2022-08-18T16:55:13.535Z,7.35
2022-08-18T16:58:01.778Z,4.95
2022-08-18T17:00:54.499Z,6.65
2022-08-18T17:03:43.165Z,5.25
2022-08-18T17:06:13.921Z,4.97
2022-08-18T17:08:42.571Z,7.93
2022-08-18T17:11:14.065Z,6.13
2022-08-18T17:13:42.148Z,4.50
2022-08-18T17:16:11.130Z,5.43
2022-08-18T17:18:39.393Z,5.60
2022-08-18T17:21:10.192Z,4.75
2022-08-18T17:23:39.339Z,7.03
2022-08-18T17:26:22.045Z,5.72
2022-08-18T17:28:55.567Z,4.80
2022-08-18T17:31:24.781Z,5.50
2022-08-18T17:33:57.288Z,6.00
2022-08-18T17:36:52.563Z,7.63
2022-08-18T17:39:36.863Z,5.20
2022-08-18T17:42:23.735Z,5.68
2022-08-18T17:44:54.232Z,5.00
2022-08-18T17:47:38.251Z,5.78
2022-08-18T17:50:32.272Z,4.97
2022-08-18T17:53:05.722Z,5.53
2022-08-18T17:55:49.815Z,5.10
2022-08-18T17:58:29.571Z,6.93
2022-08-18T18:00:57.353Z,5.20
2022-08-18T18:03:27.237Z,6.03
2022-08-18T18:06:09.279Z,6.38
2022-08-18T18:08:48.766Z,6.68
2022-08-18T18:11:16.086Z,5.63
2022-08-18T18:13:43.403Z,5.57
2022-08-18T18:16:37.038Z,6.80
2022-08-18T18:19:12.369Z,7.00
2022-08-18T18:21:57.592Z,6.65
2022-08-18T18:24:34.391Z,7.00
2022-08-18T18:27:02.232Z,6.97
2022-08-18T18:29:37.731Z,8.85
2022-08-18T18:32:25.702Z,6.78
2022-08-18T18:35:31.417Z,7.72
2022-08-18T18:38:22.916Z,7.18
2022-08-18T18:41:00.916Z,8.13
2022-08-18T18:43:35.806Z,7.07
2022-08-18T18:46:09.187Z,7.43
2022-08-18T18:48:59.548Z,7.63
2022-08-18T18:51:45.029Z,7.00
2022-08-18T18:54:54.932Z,8.02
2022-08-18T18:57:33.360Z,7.45
2022-08-18T19:00:18.240Z,7.75
2022-08-18T19:02:53.539Z,8.27
2022-08-18T19:05:45.474Z,8.25
2022-08-18T19:08:24.052Z,7.50
2022-08-18T19:11:03.501Z,8.13
2022-08-18T19:13:37.574Z,8.63
2022-08-18T19:16:30.664Z,8.80
2022-08-18T19:19:37.429Z,9.77
2022-08-18T19:22:18.597Z,8.95
2022-08-18T19:25:22.059Z,8.77
2022-08-18T19:27:57.543Z,8.40
2022-08-18T19:30:25.661Z,9.07
2022-08-18T19:33:00.337Z,9.55
2022-08-18T19:36:06.066Z,9.95
2022-08-18T19:38:52.955Z,8.80
2022-08-18T19:41:31.389Z,9.70
2022-08-18T19:44:10.842Z,9.90
2022-08-18T19:46:45.100Z,8.82
2022-08-18T19:49:31.504Z,8.85
2022-08-18T19:52:05.178Z,8.85
2022-08-18T19:54:35.625Z,9.48
2022-08-18T19:57:44.751Z,8.77
2022-08-18T20:00:25.334Z,8.02
2022-08-18T20:03:05.141Z,9.65
2022-08-18T20:06:34.921Z,9.85
2022-08-18T20:09:23.499Z,9.02
2022-08-18T20:12:18.098Z,12.85
2022-08-18T20:15:00.418Z,9.67
2022-08-18T20:17:28.047Z,10.70
2022-08-18T20:19:57.332Z,12.45
2022-08-18T20:22:25.108Z,11.93
2022-08-18T20:25:05.996Z,10.90
2022-08-18T20:27:38.272Z,11.93
2022-08-18T20:30:17.463Z,10.73
2022-08-18T20:33:13.219Z,11.63
2022-08-18T20:35:53.935Z,11.18
2022-08-18T20:38:36.315Z,11.80
2022-08-18T20:41:28.600Z,11.13
2022-08-18T20:44:28.801Z,11.90
2022-08-18T20:47:15.809Z,11.18
2022-08-18T20:50:12.607Z,11.13
2022-08-18T20:52:58.055Z,12.90
2022-08-18T20:55:47.670Z,15.35
2022-08-18T20:58:19.287Z,12.68
2022-08-18T21:00:53.735Z,13.13
2022-08-18T21:03:23.920Z,12.48
2022-08-18T21:05:58.108Z,12.77
2022-08-18T21:08:32.975Z,12.30
2022-08-18T21:13:41.884Z,12.80
2022-08-18T21:16:11.844Z,14.82
2022-08-18T21:18:40.855Z,13.13
2022-08-18T21:21:27.172Z,11.48
2022-08-18T21:23:58.367Z,13.02
2022-08-18T21:26:27.476Z,12.20
2022-08-18T21:29:11.819Z,12.52
2022-08-18T21:31:44.938Z,11.52
2022-08-18T21:34:33.206Z,11.82
2022-08-18T21:37:07.850Z,11.80
2022-08-18T21:39:46.598Z,14.15
2022-08-18T21:42:24.515Z,12.93
2022-08-18T21:44:54.971Z,13.23
2022-08-18T21:47:35.575Z,14.43
2022-08-18T21:50:17.371Z,14.18
2022-08-18T21:53:05.271Z,13.77
2022-08-18T21:55:37.234Z,14.50
2022-08-18T21:58:07.659Z,14.73
2022-08-18T22:00:44.262Z,14.60
2022-08-18T22:03:28.139Z,13.93
2022-08-18T22:06:20.034Z,15.52
2022-08-18T22:08:51.282Z,14.75
2022-08-18T22:12:00.088Z,15.95
2022-08-18T22:14:54.558Z,15.73
2022-08-18T22:17:52.162Z,15.85
2022-08-18T22:20:42.598Z,15.30
2022-08-18T22:23:31.673Z,15.25
2022-08-18T22:26:14.262Z,16.30
2022-08-18T22:28:53.594Z,16.88
2022-08-18T22:31:23.174Z,15.77
2022-08-18T22:33:51.742Z,15.90
2022-08-18T22:36:28.241Z,16.83
2022-08-18T22:38:56.077Z,16.00
2022-08-18T22:41:23.494Z,17.77
2022-08-18T22:43:54.758Z,16.23
2022-08-18T22:46:24.816Z,16.60
2022-08-18T22:48:53.205Z,16.05
2022-08-18T22:51:26.514Z,17.70
2022-08-18T22:53:56.826Z,17.38
2022-08-18T22:56:34.037Z,19.20
2022-08-18T22:59:13.621Z,19.02
2022-08-18T23:01:46.789Z,19.05
2022-08-18T23:04:16.014Z,21.92
2022-08-18T23:06:51.306Z,20.90
2022-08-18T23:09:20.987Z,21.30
2022-08-18T23:11:48.392Z,23.02
2022-08-18T23:14:15.934Z,21.65
2022-08-18T23:16:45.403Z,22.08
2022-08-18T23:19:38.135Z,22.10
2022-08-18T23:22:05.566Z,23.70
2022-08-18T23:24:32.960Z,23.48
2022-08-18T23:27:00.349Z,23.33
2022-08-18T23:29:28.017Z,25.52
2022-08-18T23:31:55.335Z,25.23
2022-08-18T23:34:24.306Z,24.95
2022-08-18T23:36:58.178Z,25.85
2022-08-18T23:39:26.483Z,25.73
2022-08-18T23:41:54.205Z,25.40
2022-08-18T23:44:27.429Z,25.50
2022-08-18T23:47:00.073Z,25.02
2022-08-18T23:49:29.455Z,24.15
2022-08-18T23:51:57.974Z,22.42
2022-08-18T23:54:29.129Z,23.25
2022-08-18T23:56:57.013Z,24.50
2022-08-18T23:59:25.704Z,23.88
